Terminal Aerodrome Forecast
Issued by NWS

Home | Current Version | Previous Version | Graphics & Text | Print | Product List | Glossary On
Versions: 1 2 3 4 5 6 7 8 9 10 11 12 13 14 15 16 17 18 19 20
000
FTUS43 KGRB 010100 AAA
TAFAUW
TAF AMD
KAUW 010107Z 0101/0124 02006KT P6SM SCT150
     FM010700 07003KT P6SM BKN110
     FM011400 14009G15KT P6SM SCT120
     FM011800 16015G25KT P6SM BKN150=

USA.gov is the U.S. government's official web portal to all federal, state and local government web resources and services.